TimeEST,TemperatureF,Dew PointF,Humidity,Sea Level PressureIn,VisibilityMPH,Wind Direction,Wind SpeedMPH,Gust SpeedMPH,PrecipitationIn,Events,Conditions,WindDirDegrees,DateUTC
12:56 AM,28.9,21.0,72,29.89,10.0,Calm,Calm,-,N/A,,Overcast,0,2012-12-11 05:56:00
1:46 AM,28.4,21.2,74,29.87,10.0,West,4.6,-,N/A,,Overcast,270,2012-12-11 06:46:00
1:56 AM,28.0,21.0,75,29.90,10.0,West,3.5,-,N/A,,Mostly Cloudy,270,2012-12-11 06:56:00
2:09 AM,26.6,21.2,80,29.87,10.0,NW,4.6,-,N/A,,Partly Cloudy,310,2012-12-11 07:09:00
2:56 AM,25.0,19.0,78,29.92,10.0,Calm,Calm,-,N/A,,Clear,0,2012-12-11 07:56:00
3:56 AM,23.0,19.0,85,29.94,10.0,WSW,3.5,-,N/A,,Clear,240,2012-12-11 08:56:00
4:56 AM,21.9,19.0,89,29.96,10.0,Calm,Calm,-,N/A,,Mostly Cloudy,0,2012-12-11 09:56:00
5:56 AM,25.0,21.0,85,29.97,10.0,Calm,Calm,-,N/A,,Overcast,0,2012-12-11 10:56:00
6:56 AM,25.0,21.0,85,29.99,10.0,SSW,3.5,-,N/A,,Overcast,210,2012-12-11 11:56:00
7:56 AM,26.1,21.9,84,30.01,10.0,Calm,Calm,-,N/A,,Overcast,0,2012-12-11 12:56:00
8:56 AM,27.0,23.0,85,30.02,5.0,Calm,Calm,-,0.00,Snow,Light Snow,0,2012-12-11 13:56:00
9:11 AM,26.6,23.0,86,29.98,2.0,Calm,Calm,-,0.00,Snow,Light Snow,0,2012-12-11 14:11:00
9:15 AM,26.6,23.0,86,29.98,0.8,SSW,3.5,-,0.00,Snow,Light Snow,210,2012-12-11 14:15:00
9:23 AM,26.6,24.8,93,29.98,1.0,Calm,Calm,-,0.00,Snow,Light Snow,0,2012-12-11 14:23:00
9:27 AM,26.6,24.8,93,29.99,3.0,Calm,Calm,-,0.00,Snow,Light Snow,0,2012-12-11 14:27:00
9:37 AM,28.4,24.8,86,29.99,9.0,SSW,3.5,-,0.00,,Overcast,210,2012-12-11 14:37:00
9:56 AM,28.9,25.0,85,30.03,8.0,SW,4.6,-,0.00,Snow,Light Snow,230,2012-12-11 14:56:00
10:06 AM,30.2,26.6,86,29.99,9.0,SW,3.5,-,0.00,,Scattered Clouds,230,2012-12-11 15:06:00
10:56 AM,32.0,23.0,69,30.03,10.0,WSW,12.7,17.3,0.00,,Scattered Clouds,250,2012-12-11 15:56:00
12:32 PM,35.6,23.0,60,30.00,10.0,WSW,15.0,19.6,N/A,,Mostly Cloudy,250,2012-12-11 17:32:00
12:56 PM,33.1,21.9,64,30.04,10.0,SW,11.5,-,N/A,,Mostly Cloudy,220,2012-12-11 17:56:00
1:04 PM,32.0,21.2,64,30.00,10.0,SW,13.8,-,N/A,,Overcast,230,2012-12-11 18:04:00
1:56 PM,32.0,21.0,64,30.04,10.0,SW,12.7,-,N/A,,Overcast,220,2012-12-11 18:56:00
2:56 PM,33.1,19.9,59,30.05,10.0,SW,8.1,18.4,N/A,,Overcast,220,2012-12-11 19:56:00
3:56 PM,32.0,18.0,56,30.05,10.0,SW,12.7,-,N/A,,Scattered Clouds,220,2012-12-11 20:56:00
4:56 PM,30.0,19.0,64,30.07,10.0,SSW,9.2,-,N/A,,Clear,210,2012-12-11 21:56:00
5:56 PM,28.9,18.0,64,30.09,10.0,SSW,8.1,-,N/A,,Clear,210,2012-12-11 22:56:00
6:56 PM,28.0,19.0,69,30.09,10.0,SSW,11.5,-,N/A,,Clear,210,2012-12-11 23:56:00
7:56 PM,28.0,19.0,69,30.11,10.0,SW,9.2,-,N/A,,Clear,220,2012-12-12 00:56:00
8:56 PM,27.0,19.9,75,30.13,10.0,SSW,8.1,-,N/A,,Partly Cloudy,210,2012-12-12 01:56:00
9:56 PM,28.0,19.9,72,30.13,10.0,SSW,13.8,-,N/A,,Clear,210,2012-12-12 02:56:00
10:56 PM,28.0,19.9,72,30.14,10.0,SW,12.7,19.6,N/A,,Clear,220,2012-12-12 03:56:00
11:56 PM,28.0,21.0,75,30.16,10.0,SW,11.5,-,N/A,,Clear,230,2012-12-12 04:56:00